createdAt,value
2023-03-31T00:00:53.470Z,101469.13
2023-03-31T00:03:24.892Z,101467.50
2023-03-31T00:05:58.304Z,101475.13
2023-03-31T00:08:29.892Z,101466.09
2023-03-31T00:11:00.748Z,101450.59
2023-03-31T00:13:28.824Z,101460.41
2023-03-31T00:16:01.559Z,101455.09
2023-03-31T00:18:29.971Z,101458.91
2023-03-31T00:21:08.103Z,101456.78
2023-03-31T00:23:35.509Z,101454.03
2023-03-31T00:26:02.825Z,101461.13
2023-03-31T00:28:30.296Z,101465.78
2023-03-31T00:31:01.150Z,101456.94
2023-03-31T00:33:29.636Z,101460.34
2023-03-31T00:35:57.838Z,101450.94
2023-03-31T00:38:24.950Z,101453.38
2023-03-31T00:40:53.842Z,101455.84
2023-03-31T00:43:39.150Z,101448.25
2023-03-31T00:46:15.487Z,101459.34
2023-03-31T00:48:51.545Z,101462.78
2023-03-31T00:51:22.284Z,101460.50
2023-03-31T00:53:57.506Z,101452.22
2023-03-31T00:56:24.896Z,101444.38
2023-03-31T00:58:54.032Z,101451.22
2023-03-31T01:01:24.697Z,101452.22
2023-03-31T01:03:53.004Z,101449.69
2023-03-31T01:06:20.195Z,101446.41
2023-03-31T01:08:50.081Z,101429.84
2023-03-31T01:11:22.049Z,101428.78
2023-03-31T01:13:51.991Z,101422.34
2023-03-31T01:16:19.163Z,101417.94
2023-03-31T01:18:49.627Z,101414.28
2023-03-31T01:21:38.507Z,101420.91
2023-03-31T01:24:08.682Z,101411.78
2023-03-31T01:26:53.728Z,101410.22
2023-03-31T01:29:39.366Z,101409.84
2023-03-31T01:32:24.995Z,101407.03
2023-03-31T01:35:09.505Z,101404.03
2023-03-31T01:37:42.360Z,101401.19
2023-03-31T01:40:23.237Z,101405.63
2023-03-31T01:43:16.389Z,101397.91
2023-03-31T01:45:52.611Z,101390.06
2023-03-31T01:48:30.099Z,101382.47
2023-03-31T01:51:02.089Z,101381.53
2023-03-31T01:54:18.595Z,101366.75
2023-03-31T01:57:00.407Z,101362.78
2023-03-31T01:59:34.391Z,101365.13
2023-03-31T02:02:07.441Z,101368.03
2023-03-31T02:04:42.323Z,101364.00
2023-03-31T02:07:17.548Z,101356.88
2023-03-31T02:09:50.312Z,101349.28
2023-03-31T02:12:21.924Z,101347.78
2023-03-31T02:14:52.567Z,101334.03
2023-03-31T02:17:30.165Z,101334.19
2023-03-31T02:20:01.654Z,101328.91
2023-03-31T02:22:34.073Z,101316.06
2023-03-31T02:25:03.100Z,101319.75
2023-03-31T02:27:37.487Z,101320.72
2023-03-31T02:30:06.788Z,101323.56
2023-03-31T02:32:39.732Z,101320.19
2023-03-31T02:35:10.240Z,101315.94
2023-03-31T02:37:39.186Z,101323.25
2023-03-31T02:40:10.424Z,101313.84
2023-03-31T02:42:39.560Z,101322.09
2023-03-31T02:45:27.785Z,101322.47
2023-03-31T02:47:55.597Z,101326.09
2023-03-31T02:50:31.576Z,101328.28
2023-03-31T02:53:29.419Z,101326.75
2023-03-31T02:56:18.487Z,101339.06
2023-03-31T02:59:06.665Z,101342.50
2023-03-31T03:01:55.003Z,101347.78
2023-03-31T03:04:41.680Z,101346.22
2023-03-31T03:07:24.058Z,101349.78
2023-03-31T03:10:12.310Z,101339.22
2023-03-31T03:13:12.350Z,101341.88
2023-03-31T03:15:46.242Z,101329.59
2023-03-31T03:18:14.333Z,101324.25
2023-03-31T03:20:49.146Z,101325.16
2023-03-31T03:23:17.890Z,101325.16
2023-03-31T03:25:46.078Z,101323.31
2023-03-31T03:28:13.182Z,101318.84
2023-03-31T03:30:40.452Z,101325.97
2023-03-31T03:33:07.635Z,101318.97
2023-03-31T03:35:34.980Z,101316.28
2023-03-31T03:38:02.311Z,101304.69
2023-03-31T03:40:29.418Z,101293.97
2023-03-31T03:42:56.515Z,101293.88
2023-03-31T03:45:23.602Z,101288.59
2023-03-31T03:47:50.701Z,101277.19
2023-03-31T03:50:17.915Z,101278.06
2023-03-31T03:52:45.114Z,101288.66
2023-03-31T03:55:12.327Z,101280.88
2023-03-31T03:57:39.440Z,101283.38
2023-03-31T04:00:12.176Z,101276.28
2023-03-31T04:02:40.358Z,101277.13
2023-03-31T04:05:07.992Z,101277.09
2023-03-31T04:07:35.158Z,101270.75
2023-03-31T04:10:02.265Z,101260.22
2023-03-31T04:12:29.403Z,101262.97
2023-03-31T04:14:56.527Z,101263.22
2023-03-31T04:17:32.544Z,101270.28
2023-03-31T04:20:02.214Z,101270.09
2023-03-31T04:22:35.274Z,101272.91
2023-03-31T04:25:04.915Z,101284.03
2023-03-31T04:27:33.737Z,101286.88
2023-03-31T04:30:00.873Z,101269.84
2023-03-31T04:32:28.423Z,101280.31
2023-03-31T04:35:03.314Z,101280.22
2023-03-31T04:37:34.932Z,101273.38
2023-03-31T04:40:08.548Z,101271.94
2023-03-31T04:42:36.127Z,101279.63
2023-03-31T04:45:03.976Z,101278.72
2023-03-31T04:47:31.316Z,101274.44
2023-03-31T04:49:58.491Z,101282.56
2023-03-31T04:52:25.765Z,101295.69
2023-03-31T04:54:52.835Z,101283.44
2023-03-31T04:57:20.021Z,101278.47
2023-03-31T04:59:47.370Z,101262.66
2023-03-31T05:02:16.015Z,101258.13
2023-03-31T05:04:43.131Z,101258.88
2023-03-31T05:07:10.669Z,101250.16
2023-03-31T05:09:37.766Z,101261.75
2023-03-31T05:12:05.017Z,101260.09
2023-03-31T05:14:32.099Z,101260.09
2023-03-31T05:16:59.474Z,101251.16
2023-03-31T05:19:26.812Z,101251.13
2023-03-31T05:21:53.933Z,101258.81
2023-03-31T05:24:21.080Z,101259.47
2023-03-31T05:26:52.589Z,101256.75
2023-03-31T05:29:20.612Z,101243.66
2023-03-31T05:31:48.136Z,101232.16
2023-03-31T05:34:16.250Z,101232.47
2023-03-31T05:36:43.531Z,101246.19
2023-03-31T05:39:10.727Z,101246.81
2023-03-31T05:41:37.799Z,101244.91
2023-03-31T05:44:05.077Z,101238.50
2023-03-31T05:46:32.354Z,101240.09
2023-03-31T05:48:59.516Z,101252.41
2023-03-31T05:51:26.681Z,101250.28
2023-03-31T05:53:53.808Z,101245.72
2023-03-31T05:56:22.166Z,101227.69
2023-03-31T05:58:49.324Z,101221.91
2023-03-31T06:01:21.220Z,101214.53
2023-03-31T06:03:48.941Z,101212.31
2023-03-31T06:06:19.449Z,101232.50
2023-03-31T06:08:47.847Z,101245.59
2023-03-31T06:11:19.331Z,101249.19
2023-03-31T06:13:47.023Z,101233.09
2023-03-31T06:16:15.573Z,101235.13
2023-03-31T06:18:43.086Z,101235.59
2023-03-31T06:21:16.282Z,101226.94
2023-03-31T06:23:44.469Z,101229.13
2023-03-31T06:26:18.945Z,101229.66
2023-03-31T06:28:46.852Z,101219.44
2023-03-31T06:31:19.914Z,101216.00
2023-03-31T06:33:48.135Z,101214.53
2023-03-31T06:36:17.611Z,101207.31
2023-03-31T06:38:45.642Z,101198.41
2023-03-31T06:41:15.231Z,101209.81
2023-03-31T06:43:42.709Z,101199.63
2023-03-31T06:46:10.444Z,101201.03
2023-03-31T06:48:37.781Z,101215.16
2023-03-31T06:51:06.638Z,101189.41
2023-03-31T06:53:34.333Z,101204.38
2023-03-31T06:56:01.612Z,101186.13
2023-03-31T06:58:31.441Z,101183.41
2023-03-31T07:00:59.100Z,101183.88
2023-03-31T07:03:26.369Z,101167.09
2023-03-31T07:05:54.983Z,101154.38
2023-03-31T07:08:23.057Z,101146.56
2023-03-31T07:10:57.632Z,101152.59
2023-03-31T07:13:25.742Z,101146.38
2023-03-31T07:15:53.655Z,101149.75
2023-03-31T07:18:21.650Z,101149.59
2023-03-31T07:20:50.530Z,101159.16
2023-03-31T07:23:18.815Z,101158.88
2023-03-31T07:25:47.156Z,101155.22
2023-03-31T07:28:14.657Z,101142.13
2023-03-31T07:30:42.722Z,101133.50
2023-03-31T07:33:10.429Z,101126.22
2023-03-31T07:35:39.659Z,101130.41
2023-03-31T07:38:14.355Z,101122.44
2023-03-31T07:40:45.268Z,101114.16
2023-03-31T07:43:13.485Z,101110.38
2023-03-31T07:45:40.955Z,101111.25
2023-03-31T07:48:08.377Z,101105.72
2023-03-31T07:50:35.547Z,101100.06
2023-03-31T07:53:06.498Z,101102.59
2023-03-31T07:55:33.634Z,101104.09
2023-03-31T07:58:00.944Z,101078.25
2023-03-31T08:00:28.178Z,101077.56
2023-03-31T08:02:55.553Z,101087.69
2023-03-31T08:05:22.892Z,101091.00
2023-03-31T08:07:51.385Z,101097.59
2023-03-31T08:10:23.633Z,101099.19
2023-03-31T08:12:50.866Z,101092.59
2023-03-31T08:15:18.683Z,101101.22
2023-03-31T08:17:46.139Z,101107.31
2023-03-31T08:20:13.498Z,101100.38
2023-03-31T08:22:41.226Z,101092.63
2023-03-31T08:25:10.127Z,101099.91
2023-03-31T08:27:40.118Z,101098.25
2023-03-31T08:30:09.821Z,101100.97
2023-03-31T08:32:37.680Z,101102.16
2023-03-31T08:35:05.732Z,101107.38
2023-03-31T08:37:33.531Z,101096.22
2023-03-31T08:40:00.835Z,101087.59
2023-03-31T08:42:37.751Z,101096.97
2023-03-31T08:45:15.205Z,101101.47
2023-03-31T08:47:43.682Z,101099.41
2023-03-31T08:50:17.574Z,101079.53
2023-03-31T08:53:02.059Z,101076.84
2023-03-31T08:55:37.456Z,101060.09
2023-03-31T08:58:35.771Z,101059.38
2023-03-31T09:01:29.444Z,101065.31
2023-03-31T09:04:44.066Z,101047.34
2023-03-31T09:07:11.224Z,101057.09
2023-03-31T09:10:12.196Z,101046.31
2023-03-31T09:13:28.489Z,101060.59
2023-03-31T09:16:08.775Z,101063.84
2023-03-31T09:18:38.807Z,101076.56
2023-03-31T09:21:21.108Z,101062.88
2023-03-31T09:24:09.469Z,101058.91
2023-03-31T09:26:58.558Z,101060.94
2023-03-31T09:29:47.916Z,101057.69
2023-03-31T09:32:24.712Z,101046.59
2023-03-31T09:35:14.249Z,101049.81
2023-03-31T09:37:41.460Z,101038.38
2023-03-31T09:40:18.580Z,101022.75
2023-03-31T09:42:51.271Z,101024.47
2023-03-31T09:45:20.280Z,101024.94
2023-03-31T09:47:52.125Z,101027.63
2023-03-31T09:50:20.814Z,101019.34
2023-03-31T09:52:56.527Z,101009.28
2023-03-31T09:55:38.246Z,101011.66
2023-03-31T09:58:12.686Z,101013.41
2023-03-31T10:00:57.336Z,101009.63
2023-03-31T10:03:25.054Z,100995.25
2023-03-31T10:06:15.789Z,100998.19
2023-03-31T10:08:51.639Z,100990.94
2023-03-31T10:11:18.835Z,100976.00
2023-03-31T10:14:13.300Z,100979.34
2023-03-31T10:16:48.083Z,100975.91
2023-03-31T10:19:24.093Z,100959.78
2023-03-31T10:22:07.008Z,100959.84
2023-03-31T10:24:40.943Z,100938.84
2023-03-31T10:27:20.029Z,100926.44
2023-03-31T10:29:47.506Z,100909.09
2023-03-31T10:32:23.970Z,100897.06
2023-03-31T10:34:51.541Z,100891.94
2023-03-31T10:37:22.536Z,100891.50
2023-03-31T10:39:58.878Z,100876.94
2023-03-31T10:42:27.726Z,100868.38
2023-03-31T10:45:37.929Z,100861.78
2023-03-31T10:48:16.885Z,100855.66
2023-03-31T10:50:44.526Z,100851.50
2023-03-31T10:53:14.509Z,100847.59
2023-03-31T10:55:47.462Z,100849.38
2023-03-31T10:58:36.238Z,100849.59
2023-03-31T11:01:20.867Z,100828.94
2023-03-31T11:04:06.755Z,100823.75
2023-03-31T11:06:43.310Z,100819.41
2023-03-31T11:09:22.569Z,100811.47
2023-03-31T11:12:18.083Z,100806.88
2023-03-31T11:15:16.418Z,100798.44
2023-03-31T11:18:05.221Z,100796.41
2023-03-31T11:20:47.518Z,100788.94
2023-03-31T11:23:43.720Z,100783.84
2023-03-31T11:26:36.356Z,100765.88
2023-03-31T11:29:27.518Z,100755.97
2023-03-31T11:32:19.222Z,100753.72
2023-03-31T11:35:07.989Z,100744.72
2023-03-31T11:37:53.482Z,100740.50
2023-03-31T11:40:29.619Z,100744.22
2023-03-31T11:43:27.820Z,100739.50
2023-03-31T11:46:09.911Z,100733.56
2023-03-31T11:48:55.764Z,100729.91
2023-03-31T11:51:32.690Z,100736.28
2023-03-31T11:54:03.531Z,100726.69
2023-03-31T11:56:37.643Z,100725.50
2023-03-31T11:59:07.393Z,100709.38
2023-03-31T12:02:04.395Z,100713.56
2023-03-31T12:04:39.946Z,100696.16
2023-03-31T12:07:44.145Z,100683.31
2023-03-31T12:10:23.948Z,100674.59
2023-03-31T12:13:14.242Z,100679.19
2023-03-31T12:15:46.605Z,100662.06
2023-03-31T12:18:19.019Z,100648.94
2023-03-31T12:20:56.589Z,100644.72
2023-03-31T12:23:27.999Z,100639.53
2023-03-31T12:26:11.390Z,100625.56
2023-03-31T12:28:40.656Z,100620.50
2023-03-31T12:31:14.200Z,100615.88
2023-03-31T12:33:47.330Z,100606.03
2023-03-31T12:36:23.453Z,100597.06
2023-03-31T12:39:27.442Z,100573.41
2023-03-31T12:42:08.673Z,100592.69
2023-03-31T12:44:54.060Z,100582.47
2023-03-31T12:47:39.772Z,100569.50
2023-03-31T12:50:30.103Z,100555.72
2023-03-31T12:53:27.297Z,100550.72
2023-03-31T12:55:58.709Z,100548.25
2023-03-31T12:58:34.780Z,100541.06
2023-03-31T13:01:28.621Z,100526.69
2023-03-31T13:04:21.611Z,100517.19
2023-03-31T13:06:53.792Z,100503.09
2023-03-31T13:09:32.937Z,100497.88
2023-03-31T13:12:07.897Z,100502.19
2023-03-31T13:14:40.355Z,100494.69
2023-03-31T13:17:23.293Z,100484.94
2023-03-31T13:19:52.230Z,100483.47
2023-03-31T13:22:43.449Z,100491.84
2023-03-31T13:25:43.784Z,100482.19
2023-03-31T13:28:18.710Z,100478.63
2023-03-31T13:30:51.450Z,100471.00
2023-03-31T13:33:33.175Z,100458.94
2023-03-31T13:36:29.979Z,100453.53
2023-03-31T13:39:05.811Z,100456.16
2023-03-31T13:41:51.513Z,100444.44
2023-03-31T13:44:29.342Z,100434.97
2023-03-31T13:47:16.649Z,100435.31
2023-03-31T13:49:54.464Z,100417.75
2023-03-31T13:52:47.905Z,100419.25
2023-03-31T13:55:34.546Z,100434.44
2023-03-31T13:58:35.305Z,100426.44
2023-03-31T14:01:37.188Z,100413.50
2023-03-31T14:04:16.469Z,100418.81
2023-03-31T14:06:49.964Z,100423.28
2023-03-31T14:09:32.263Z,100408.66
2023-03-31T14:12:00.481Z,100418.91
2023-03-31T14:14:29.644Z,100399.94
2023-03-31T14:16:59.259Z,100382.78
2023-03-31T14:19:35.834Z,100378.22
2023-03-31T14:22:06.012Z,100376.28
2023-03-31T14:24:56.275Z,100377.56
2023-03-31T14:27:43.640Z,100372.22
2023-03-31T14:30:27.194Z,100362.44
2023-03-31T14:33:22.435Z,100348.16
2023-03-31T14:36:15.910Z,100343.56
2023-03-31T14:38:43.538Z,100338.94
2023-03-31T14:41:20.112Z,100327.41
2023-03-31T14:43:51.202Z,100331.88
2023-03-31T14:46:22.103Z,100328.38
2023-03-31T14:48:51.446Z,100308.38
2023-03-31T14:51:26.360Z,100288.06
2023-03-31T14:54:01.644Z,100287.00
2023-03-31T14:56:40.077Z,100285.78
2023-03-31T14:59:08.150Z,100288.72
2023-03-31T15:01:38.291Z,100282.94
2023-03-31T15:04:13.017Z,100283.53
2023-03-31T15:06:47.871Z,100278.22
2023-03-31T15:09:23.715Z,100269.97
2023-03-31T15:11:59.611Z,100275.06
2023-03-31T15:14:34.127Z,100265.97
2023-03-31T15:17:01.985Z,100273.84
2023-03-31T15:19:33.027Z,100267.66
2023-03-31T15:22:06.130Z,100276.53
2023-03-31T15:24:33.406Z,100271.97
2023-03-31T15:27:16.334Z,100280.16
2023-03-31T15:29:49.586Z,100267.44
2023-03-31T15:32:37.344Z,100256.19
2023-03-31T15:35:18.831Z,100255.41
2023-03-31T15:37:52.088Z,100245.34
2023-03-31T15:40:42.961Z,100247.78
2023-03-31T15:43:25.832Z,100247.72
2023-03-31T15:45:58.312Z,100241.72
2023-03-31T15:48:37.756Z,100242.72
2023-03-31T15:51:13.854Z,100245.78
2023-03-31T15:53:47.057Z,100251.00
2023-03-31T15:56:31.363Z,100254.38
2023-03-31T15:59:03.235Z,100236.72
2023-03-31T16:01:38.737Z,100236.88
2023-03-31T16:04:09.580Z,100243.94
2023-03-31T16:06:48.612Z,100237.06
2023-03-31T16:09:41.815Z,100235.38
2023-03-31T16:12:24.474Z,100226.81
2023-03-31T16:14:58.050Z,100229.34
2023-03-31T16:17:28.312Z,100229.00
2023-03-31T16:20:07.340Z,100231.16
2023-03-31T16:22:40.596Z,100222.53
2023-03-31T16:25:10.815Z,100214.16
2023-03-31T16:27:47.800Z,100221.69
2023-03-31T16:30:21.090Z,100217.09
2023-03-31T16:33:00.194Z,100208.88
2023-03-31T16:35:40.173Z,100214.88
2023-03-31T16:38:09.805Z,100207.00
2023-03-31T16:40:39.342Z,100218.50
2023-03-31T16:43:10.152Z,100216.56
2023-03-31T16:45:37.481Z,100206.13
2023-03-31T16:48:15.507Z,100198.53
2023-03-31T16:50:58.465Z,100208.56
2023-03-31T16:53:28.396Z,100209.25
2023-03-31T16:55:56.146Z,100205.84
2023-03-31T16:58:24.558Z,100202.72
2023-03-31T17:00:52.231Z,100211.59
2023-03-31T17:03:20.472Z,100215.38
2023-03-31T17:05:53.104Z,100212.44
2023-03-31T17:08:22.803Z,100220.59
2023-03-31T17:11:00.642Z,100216.47
2023-03-31T17:13:27.883Z,100201.28
2023-03-31T17:16:01.293Z,100209.63
2023-03-31T17:18:35.945Z,100219.53
2023-03-31T17:21:08.052Z,100228.34
2023-03-31T17:23:36.483Z,100224.66
2023-03-31T17:26:04.356Z,100230.44
2023-03-31T17:28:31.752Z,100226.38
2023-03-31T17:30:59.177Z,100223.31
2023-03-31T17:33:27.809Z,100220.66
2023-03-31T17:36:01.059Z,100234.59
2023-03-31T17:38:28.796Z,100226.72
2023-03-31T17:40:56.016Z,100232.50
2023-03-31T17:43:23.283Z,100234.06
2023-03-31T17:45:50.393Z,100243.69
2023-03-31T17:48:17.615Z,100227.94
2023-03-31T17:50:44.813Z,100239.25
2023-03-31T17:53:12.033Z,100226.69
2023-03-31T17:55:39.268Z,100228.41
2023-03-31T17:58:08.445Z,100222.06
2023-03-31T18:00:35.808Z,100234.72
2023-03-31T18:03:03.173Z,100239.06
2023-03-31T18:05:32.365Z,100232.03
2023-03-31T18:07:59.647Z,100223.34
2023-03-31T18:10:26.764Z,100224.19
2023-03-31T18:12:54.967Z,100227.72
2023-03-31T18:15:22.681Z,100233.91
2023-03-31T18:17:50.615Z,100234.34
2023-03-31T18:20:18.126Z,100232.94
2023-03-31T18:22:45.376Z,100235.06
2023-03-31T18:25:13.041Z,100243.31
2023-03-31T18:27:40.271Z,100243.47
2023-03-31T18:30:08.463Z,100253.31
2023-03-31T18:32:35.866Z,100240.09
2023-03-31T18:35:03.081Z,100256.25
2023-03-31T18:37:30.265Z,100267.63
2023-03-31T18:39:57.678Z,100258.31
2023-03-31T18:42:25.707Z,100271.94
2023-03-31T18:44:53.252Z,100269.41
2023-03-31T18:47:21.361Z,100267.00
2023-03-31T18:49:53.296Z,100264.59
2023-03-31T18:52:20.654Z,100283.56
2023-03-31T18:54:48.128Z,100282.97
2023-03-31T18:57:15.545Z,100279.75
2023-03-31T18:59:42.760Z,100272.28
2023-03-31T19:02:14.061Z,100269.63
2023-03-31T19:04:41.605Z,100266.38
2023-03-31T19:07:08.712Z,100280.50
2023-03-31T19:09:36.267Z,100284.56
2023-03-31T19:12:04.347Z,100280.06
2023-03-31T19:14:31.557Z,100270.47
2023-03-31T19:16:59.505Z,100254.75
2023-03-31T19:19:27.114Z,100283.03
2023-03-31T19:21:54.555Z,100283.78
2023-03-31T19:24:21.793Z,100267.81
2023-03-31T19:26:48.986Z,100254.44
2023-03-31T19:29:16.600Z,100250.22
2023-03-31T19:31:45.090Z,100238.72
2023-03-31T19:34:12.364Z,100232.63
2023-03-31T19:36:40.138Z,100234.75
2023-03-31T19:39:07.307Z,100247.75
2023-03-31T19:41:35.802Z,100243.06
2023-03-31T19:44:03.036Z,100240.88
2023-03-31T19:46:30.592Z,100242.88
2023-03-31T19:48:57.834Z,100235.91
2023-03-31T19:51:24.963Z,100241.09
2023-03-31T19:53:53.261Z,100223.47
2023-03-31T19:56:21.317Z,100225.91
2023-03-31T19:58:50.156Z,100230.72
2023-03-31T20:01:23.559Z,100223.38
2023-03-31T20:03:53.042Z,100238.16
2023-03-31T20:06:30.782Z,100238.25
2023-03-31T20:09:00.333Z,100232.94
2023-03-31T20:11:29.404Z,100239.00
2023-03-31T20:13:59.091Z,100235.00
2023-03-31T20:16:28.115Z,100231.75
2023-03-31T20:18:58.709Z,100231.88
2023-03-31T20:21:28.556Z,100208.44
2023-03-31T20:23:57.064Z,100211.88
2023-03-31T20:26:29.439Z,100213.31
2023-03-31T20:28:58.857Z,100202.00
2023-03-31T20:31:28.352Z,100190.16
2023-03-31T20:33:56.399Z,100186.81
2023-03-31T20:36:26.039Z,100186.00
2023-03-31T20:38:53.840Z,100174.91
2023-03-31T20:41:23.882Z,100166.19
2023-03-31T20:43:51.974Z,100180.84
2023-03-31T20:46:19.853Z,100175.41
2023-03-31T20:48:50.986Z,100177.09
2023-03-31T20:51:21.489Z,100175.66
2023-03-31T20:53:52.699Z,100169.28
2023-03-31T20:56:28.220Z,100165.16
2023-03-31T20:58:58.857Z,100164.91
2023-03-31T21:01:27.886Z,100154.16
2023-03-31T21:03:58.959Z,100148.34
2023-03-31T21:06:32.618Z,100148.00
2023-03-31T21:08:59.942Z,100158.63
2023-03-31T21:11:27.434Z,100161.28
2023-03-31T21:13:54.813Z,100158.75
2023-03-31T21:16:22.364Z,100166.09
2023-03-31T21:18:51.708Z,100158.97
2023-03-31T21:21:19.444Z,100163.91
2023-03-31T21:23:46.895Z,100159.88
2023-03-31T21:26:15.767Z,100159.28
2023-03-31T21:28:43.705Z,100162.91
2023-03-31T21:31:17.948Z,100163.75
2023-03-31T21:33:47.136Z,100152.78
2023-03-31T21:36:17.997Z,100148.44
2023-03-31T21:38:45.596Z,100151.81
2023-03-31T21:41:15.692Z,100146.88
2023-03-31T21:43:43.710Z,100145.06
2023-03-31T21:46:17.390Z,100141.44
2023-03-31T21:48:44.984Z,100125.66
2023-03-31T21:51:12.115Z,100124.31
2023-03-31T21:53:39.273Z,100130.13
2023-03-31T21:56:06.477Z,100119.97
2023-03-31T21:58:33.694Z,100132.00
2023-03-31T22:01:04.035Z,100128.13
2023-03-31T22:03:34.248Z,100136.44
2023-03-31T22:06:03.593Z,100137.50
2023-03-31T22:08:31.692Z,100140.63
2023-03-31T22:11:00.467Z,100132.38
2023-03-31T22:13:29.083Z,100130.31
2023-03-31T22:15:56.388Z,100139.78
2023-03-31T22:18:23.732Z,100131.84
2023-03-31T22:20:51.497Z,100135.91
2023-03-31T22:23:20.797Z,100131.06
2023-03-31T22:25:48.498Z,100139.44
2023-03-31T22:28:16.692Z,100141.38
2023-03-31T22:30:43.997Z,100154.81
2023-03-31T22:33:12.115Z,100161.69
2023-03-31T22:35:39.343Z,100160.53
2023-03-31T22:38:08.664Z,100168.56
2023-03-31T22:40:36.303Z,100163.06
2023-03-31T22:43:03.824Z,100170.28
2023-03-31T22:45:31.386Z,100172.91
2023-03-31T22:47:58.746Z,100185.44
2023-03-31T22:50:25.921Z,100178.66
2023-03-31T22:52:53.106Z,100178.78
2023-03-31T22:55:20.666Z,100183.25
2023-03-31T22:57:47.875Z,100186.22
2023-03-31T23:00:15.364Z,100189.59
2023-03-31T23:02:42.603Z,100190.63
2023-03-31T23:05:10.018Z,100181.50
2023-03-31T23:07:38.545Z,100186.16
2023-03-31T23:10:06.360Z,100188.38
2023-03-31T23:12:33.530Z,100189.38
2023-03-31T23:15:00.790Z,100186.66
2023-03-31T23:17:27.904Z,100186.84
2023-03-31T23:19:55.386Z,100181.66
2023-03-31T23:22:22.539Z,100181.94
2023-03-31T23:24:49.720Z,100176.44
2023-03-31T23:27:17.635Z,100176.44
2023-03-31T23:29:46.016Z,100174.53
2023-03-31T23:32:14.162Z,100173.66
2023-03-31T23:34:41.875Z,100178.34
2023-03-31T23:37:11.211Z,100171.69
2023-03-31T23:39:39.483Z,100175.50
2023-03-31T23:42:07.978Z,100166.47
2023-03-31T23:44:38.661Z,100170.50
2023-03-31T23:47:06.156Z,100171.69
2023-03-31T23:49:33.523Z,100178.72
2023-03-31T23:52:00.927Z,100189.09
2023-03-31T23:54:29.007Z,100191.22
2023-03-31T23:56:56.342Z,100178.31
2023-03-31T23:59:23.514Z,100183.00
